Time;durP1;ratioP1;P1;durP2;ratioP2;P2;SDS_P1;SDS_P2;PMS_P1;PMS_P2;Temp;Humidity;BMP_temperature;BMP_pressure;BME280_temperature;BME280_humidity;BME280_pressure;Samples;Min_cycle;Max_cycle;Signal;HPM_P1;HPM_P2
2021/08/27 00:02:04;;;;;;;15.98;3.00;;;;;;;11.56;95.19;101682.50;5061803;28;20036;-72
2021/08/27 00:04:30;;;;;;;15.18;2.70;;;;;;;11.58;94.49;101674.59;5062675;28;20024;-72
2021/08/27 00:06:55;;;;;;;16.90;3.13;;;;;;;11.58;95.77;101682.56;5060868;28;20464;-73
2021/08/27 00:09:21;;;;;;;16.73;3.20;;;;;;;11.54;97.13;101676.31;5063608;28;20386;-70
2021/08/27 00:11:46;;;;;;;17.55;3.30;;;;;;;11.55;97.21;101678.09;5060714;28;20021;-72
2021/08/27 00:14:11;;;;;;;18.38;3.30;;;;;;;11.61;97.62;101682.59;5062609;28;20480;-70
2021/08/27 00:16:37;;;;;;;15.40;3.03;;;;;;;11.62;97.32;101679.06;5061551;28;20062;-68
2021/08/27 00:19:02;;;;;;;12.27;3.00;;;;;;;11.65;97.47;101676.47;5061062;28;20091;-69
2021/08/27 00:21:27;;;;;;;19.10;3.42;;;;;;;11.58;97.22;101680.78;5063026;28;20468;-71
2021/08/27 00:23:53;;;;;;;17.80;3.10;;;;;;;11.56;98.00;101678.97;5059941;28;20108;-70
2021/08/27 00:26:18;;;;;;;18.42;3.60;;;;;;;11.59;98.37;101677.28;5064154;28;20037;-71
2021/08/27 00:28:43;;;;;;;16.25;3.33;;;;;;;11.60;98.14;101673.72;5064550;28;20059;-71
2021/08/27 00:31:09;;;;;;;16.95;3.30;;;;;;;11.68;97.67;101671.22;5065619;28;20401;-71
2021/08/27 00:33:34;;;;;;;16.52;3.20;;;;;;;11.68;98.31;101674.75;5064368;28;20041;-73
2021/08/27 00:35:59;;;;;;;16.33;3.25;;;;;;;11.72;99.00;101670.34;5064315;28;20150;-73
2021/08/27 00:38:25;;;;;;;17.92;3.47;;;;;;;11.66;99.09;101678.22;5067005;28;20081;-71
2021/08/27 00:40:50;;;;;;;18.15;3.40;;;;;;;11.62;98.89;101676.41;5063759;28;20078;-70
2021/08/27 00:43:15;;;;;;;18.58;3.50;;;;;;;11.65;99.42;101671.19;5066249;28;20047;-70
2021/08/27 00:45:45;;;;;;;21.05;3.47;;;;;;;11.69;99.66;101670.31;5064322;28;20039;-68
2021/08/27 00:48:13;;;;;;;17.40;3.45;;;;;;;11.74;99.73;101667.75;5065986;28;20021;-72
2021/08/27 00:50:39;;;;;;;15.27;3.10;;;;;;;11.73;99.33;101668.63;5064633;28;20090;-70
2021/08/27 00:53:05;;;;;;;17.92;3.50;;;;;;;11.81;98.94;101666.94;5064289;28;20049;-70
2021/08/27 00:55:31;;;;;;;16.33;3.20;;;;;;;11.83;99.35;101666.09;5065458;28;20033;-70
2021/08/27 00:57:57;;;;;;;15.95;3.25;;;;;;;11.82;98.05;101659.03;5063583;28;20027;-65
2021/08/27 01:00:23;;;;;;;16.77;3.50;;;;;;;11.73;100.00;101658.03;5066601;28;20031;-64
2021/08/27 01:02:48;;;;;;;16.20;3.67;;;;;;;11.72;99.46;101646.50;5063512;28;20067;-64
2021/08/27 01:05:14;;;;;;;17.70;3.70;;;;;;;11.64;100.00;101649.06;5065649;28;20129;-65
2021/08/27 01:08:17;;;;;;;19.15;3.40;;;;;;;11.69;99.80;101659.72;5064550;28;20040;-65
2021/08/27 01:10:49;;;;;;;19.48;4.05;;;;;;;11.58;100.00;101661.38;5063238;28;20072;-65
2021/08/27 01:13:25;;;;;;;16.27;3.72;;;;;;;11.65;100.00;101657.94;5061386;28;20463;-65
2021/08/27 01:16:09;;;;;;;16.63;3.60;;;;;;;11.58;100.00;101659.59;5060175;28;20068;-64
2021/08/27 01:19:11;;;;;;;19.88;4.10;;;;;;;11.55;100.00;101659.56;5063884;28;20094;-65
2021/08/27 01:21:46;;;;;;;19.50;4.07;;;;;;;11.50;100.00;101667.44;5063890;28;20044;-65
2021/08/27 01:24:12;;;;;;;16.38;3.72;;;;;;;11.38;100.00;101671.69;5061560;28;20035;-65
2021/08/27 01:26:46;;;;;;;17.40;3.80;;;;;;;11.28;100.00;101665.34;5062434;28;20033;-65
2021/08/27 01:29:19;;;;;;;17.77;3.90;;;;;;;11.22;100.00;101663.50;5061566;28;20059;-65
2021/08/27 01:31:51;;;;;;;18.50;3.80;;;;;;;11.27;100.00;101655.63;5063121;28;20507;-65
2021/08/27 01:34:29;;;;;;;16.23;3.90;;;;;;;11.24;100.00;101650.28;5060566;28;20099;-65
2021/08/27 01:36:55;;;;;;;20.27;4.20;;;;;;;11.13;100.00;101656.31;5055236;28;20028;-65
2021/08/27 01:39:27;;;;;;;18.27;4.10;;;;;;;11.06;100.00;101654.44;5063545;28;20036;-65
2021/08/27 01:41:56;;;;;;;17.30;3.90;;;;;;;11.06;100.00;101659.75;5063582;28;20533;-65
2021/08/27 01:44:23;;;;;;;19.23;4.10;;;;;;;11.04;100.00;101661.47;5063944;28;20056;-65
2021/08/27 01:46:52;;;;;;;19.70;4.35;;;;;;;11.09;100.00;101657.13;5064904;28;20045;-65
2021/08/27 01:49:19;;;;;;;18.70;4.38;;;;;;;11.05;100.00;101657.94;5065190;28;20064;-65
2021/08/27 01:51:46;;;;;;;20.48;4.57;;;;;;;11.06;100.00;101657.09;5062555;28;20049;-66
2021/08/27 01:54:13;;;;;;;18.35;4.47;;;;;;;11.09;100.00;101664.19;5064202;28;20052;-65
2021/08/27 01:56:40;;;;;;;19.77;4.57;;;;;;;11.07;100.00;101661.53;5063453;28;20028;-65
2021/08/27 01:59:07;;;;;;;18.52;4.43;;;;;;;11.05;100.00;101668.53;5063705;28;20029;-65
2021/08/27 02:01:35;;;;;;;21.90;5.40;;;;;;;10.95;100.00;101662.22;5064689;28;20352;-65
2021/08/27 02:04:03;;;;;;;20.25;5.88;;;;;;;10.95;100.00;101664.88;5062619;28;20096;-65
2021/08/27 02:06:29;;;;;;;18.35;5.70;;;;;;;10.91;100.00;101664.81;5064574;28;20021;-65
2021/08/27 02:08:56;;;;;;;21.33;6.50;;;;;;;10.86;100.00;101666.47;5061561;28;20025;-65
2021/08/27 02:11:22;;;;;;;22.02;6.60;;;;;;;10.83;100.00;101667.31;5062018;28;20048;-71
2021/08/27 02:13:49;;;;;;;23.02;6.70;;;;;;;10.82;100.00;101676.13;5065024;28;20117;-67
2021/08/27 02:16:15;;;;;;;20.77;6.40;;;;;;;10.79;100.00;101666.38;5062465;28;20495;-67
2021/08/27 02:18:40;;;;;;;19.45;5.95;;;;;;;10.74;100.00;101675.97;5063750;28;20033;-68
2021/08/27 02:21:10;;;;;;;22.25;5.95;;;;;;;10.82;100.00;101677.00;5063276;28;20086;-68
2021/08/27 02:23:40;;;;;;;21.00;5.97;;;;;;;10.73;100.00;101674.22;5062707;28;20052;-67
2021/08/27 02:26:07;;;;;;;21.27;5.80;;;;;;;10.72;100.00;101680.38;5063674;28;20020;-68
2021/08/27 02:28:34;;;;;;;17.85;5.53;;;;;;;10.67;100.00;101686.44;5062642;28;20117;-65
2021/08/27 02:31:01;;;;;;;21.48;5.30;;;;;;;10.67;100.00;101686.44;5064105;28;20025;-67
2021/08/27 02:33:28;;;;;;;21.15;5.00;;;;;;;10.78;100.00;101684.88;5061620;28;20104;-67
2021/08/27 02:35:56;;;;;;;19.92;5.18;;;;;;;10.75;100.00;101684.81;5064622;28;20028;-67
2021/08/27 02:38:23;;;;;;;20.52;5.10;;;;;;;10.79;100.00;101691.91;5060995;28;20075;-68
2021/08/27 02:40:49;;;;;;;19.73;5.05;;;;;;;10.77;100.00;101691.00;5064528;28;20020;-65
2021/08/27 02:43:14;;;;;;;20.83;4.95;;;;;;;10.75;100.00;101691.00;5062012;28;20031;-66
2021/08/27 02:45:41;;;;;;;22.77;4.97;;;;;;;10.74;100.00;101686.56;5062962;28;20375;-68
2021/08/27 02:48:07;;;;;;;19.27;4.50;;;;;;;10.76;100.00;101690.13;5063174;28;20160;-68
2021/08/27 02:50:39;;;;;;;19.25;4.78;;;;;;;10.76;100.00;101687.50;5061857;28;20025;-69
2021/08/27 02:53:17;;;;;;;19.67;4.40;;;;;;;10.76;100.00;101690.13;5062977;28;20506;-67
2021/08/27 02:55:51;;;;;;;21.85;4.35;;;;;;;10.72;100.00;101690.94;5063158;28;20279;-69
2021/08/27 02:58:22;;;;;;;19.98;4.40;;;;;;;10.75;100.00;101691.00;5061520;28;20025;-68
2021/08/27 03:01:00;;;;;;;22.60;4.68;;;;;;;10.78;100.00;101687.50;5063776;28;20032;-67
2021/08/27 03:03:29;;;;;;;20.90;4.70;;;;;;;10.77;100.00;101691.00;5060777;28;20120;-68
2021/08/27 03:06:08;;;;;;;19.90;4.20;;;;;;;10.80;100.00;101684.03;5060740;28;20534;-67
2021/08/27 03:08:37;;;;;;;20.13;4.00;;;;;;;10.90;100.00;101678.88;5061880;28;20071;-70
2021/08/27 03:11:16;;;;;;;18.75;4.05;;;;;;;10.97;100.00;101680.78;5063479;28;20024;-68
2021/08/27 03:13:46;;;;;;;19.50;4.05;;;;;;;11.00;100.00;101678.16;5063342;28;20029;-68
2021/08/27 03:16:16;;;;;;;19.75;4.10;;;;;;;11.08;100.00;101679.19;5061691;28;20351;-67
2021/08/27 03:18:48;;;;;;;21.58;4.40;;;;;;;11.16;100.00;101676.66;5062777;28;20029;-67
2021/08/27 03:21:22;;;;;;;18.60;4.28;;;;;;;11.28;100.00;101683.88;5061684;28;20035;-67
2021/08/27 03:23:49;;;;;;;20.90;4.30;;;;;;;11.29;100.00;101677.72;5063635;28;20472;-67
2021/08/27 03:26:20;;;;;;;18.48;4.03;;;;;;;11.37;100.00;101684.00;5061295;28;20024;-67
2021/08/27 03:28:52;;;;;;;19.50;4.13;;;;;;;11.45;100.00;101689.44;5063011;28;20601;-69
2021/08/27 03:31:18;;;;;;;19.35;3.97;;;;;;;11.47;100.00;101687.69;5061143;28;20025;-66
2021/08/27 03:33:44;;;;;;;19.30;4.07;;;;;;;11.51;100.00;101681.56;5062860;28;20082;-66
2021/08/27 03:36:10;;;;;;;18.45;4.00;;;;;;;11.55;100.00;101686.03;5061903;28;20033;-65
2021/08/27 03:38:37;;;;;;;21.15;3.95;;;;;;;11.57;100.00;101683.41;5062028;28;20033;-65
2021/08/27 03:41:02;;;;;;;19.52;4.00;;;;;;;11.55;100.00;101680.75;5063022;28;20618;-65
2021/08/27 03:43:29;;;;;;;17.67;4.00;;;;;;;11.50;100.00;101682.44;5060788;28;20124;-65
2021/08/27 03:45:58;;;;;;;18.98;3.97;;;;;;;11.47;100.00;101680.63;5064275;28;20021;-66
2021/08/27 03:48:24;;;;;;;18.25;4.07;;;;;;;11.41;100.00;101682.31;5060358;28;20060;-66
2021/08/27 03:50:51;;;;;;;19.33;3.88;;;;;;;11.33;100.00;101675.16;5063369;28;20025;-65
2021/08/27 03:53:18;;;;;;;19.45;3.97;;;;;;;11.31;100.00;101676.91;5061075;28;20029;-65
2021/08/27 03:55:48;;;;;;;19.95;4.20;;;;;;;11.31;100.00;101679.53;5062779;28;20053;-65
2021/08/27 03:58:16;;;;;;;20.88;4.20;;;;;;;11.38;100.00;101679.63;5061076;28;20027;-65
2021/08/27 04:00:42;;;;;;;20.40;4.00;;;;;;;11.40;100.00;101681.44;5062791;28;20104;-66
2021/08/27 04:03:07;;;;;;;17.83;4.07;;;;;;;11.43;100.00;101684.13;5066298;28;20108;-65
2021/08/27 04:05:33;;;;;;;20.38;4.10;;;;;;;11.40;100.00;101684.09;5063598;28;20488;-66
2021/08/27 04:07:58;;;;;;;21.75;4.38;;;;;;;11.41;100.00;101682.31;5067278;28;20034;-66
2021/08/27 04:10:23;;;;;;;22.33;4.32;;;;;;;11.41;100.00;101684.97;5063967;28;20029;-65
2021/08/27 04:12:49;;;;;;;20.65;4.07;;;;;;;11.38;100.00;101680.50;5067218;28;20357;-71
2021/08/27 04:15:17;;;;;;;21.80;4.40;;;;;;;11.42;100.00;101670.88;5065319;28;20111;-65
2021/08/27 04:17:43;;;;;;;21.40;4.38;;;;;;;11.37;100.00;101677.84;5066100;28;20017;-69
2021/08/27 04:20:12;;;;;;;20.63;4.40;;;;;;;11.41;100.00;101674.38;5065486;28;20035;-72
2021/08/27 04:22:38;;;;;;;20.35;4.55;;;;;;;11.47;100.00;101670.03;5065376;28;20029;-68
2021/08/27 04:25:04;;;;;;;20.77;4.35;;;;;;;11.59;100.00;101681.66;5066276;28;20529;-69
2021/08/27 04:27:29;;;;;;;21.60;4.47;;;;;;;11.58;100.00;101672.84;5063953;28;20113;-70
2021/08/27 04:29:54;;;;;;;19.85;4.60;;;;;;;11.64;100.00;101674.69;5067347;28;20100;-72
2021/08/27 04:32:20;;;;;;;21.58;4.13;;;;;;;11.68;100.00;101679.16;5063645;28;20087;-68
2021/08/27 04:34:46;;;;;;;18.65;4.05;;;;;;;11.75;100.00;101688.97;5066091;28;20078;-70
2021/08/27 04:37:11;;;;;;;20.40;4.20;;;;;;;11.77;100.00;101687.22;5065082;28;20024;-70
2021/08/27 04:39:37;;;;;;;20.40;4.22;;;;;;;11.81;100.00;101694.34;5064857;28;20071;-67
2021/08/27 04:42:03;;;;;;;18.48;4.22;;;;;;;11.83;100.00;101694.34;5066012;28;20030;-68
2021/08/27 04:44:29;;;;;;;19.98;4.00;;;;;;;11.80;100.00;101696.97;5063963;28;20068;-70
2021/08/27 04:46:54;;;;;;;20.98;4.35;;;;;;;11.79;100.00;101690.75;5066982;28;20581;-70
2021/08/27 04:49:20;;;;;;;20.42;4.20;;;;;;;11.76;100.00;101689.84;5063794;28;20124;-69
2021/08/27 04:51:45;;;;;;;20.23;4.25;;;;;;;11.72;100.00;101690.66;5065769;28;20045;-68
2021/08/27 04:54:11;;;;;;;20.40;4.45;;;;;;;11.74;100.00;101691.59;5064524;28;20031;-70
2021/08/27 04:56:36;;;;;;;19.38;4.20;;;;;;;11.79;100.00;101695.19;5064521;28;20125;-66
2021/08/27 04:59:02;;;;;;;19.88;4.10;;;;;;;11.75;100.00;101704.84;5064748;28;20084;-71
2021/08/27 05:01:27;;;;;;;20.08;4.43;;;;;;;11.79;100.00;101700.47;5063089;28;20079;-69
2021/08/27 05:03:52;;;;;;;18.65;4.18;;;;;;;11.78;100.00;101702.25;5067042;28;20050;-66
2021/08/27 05:06:18;;;;;;;21.38;4.60;;;;;;;11.85;100.00;101704.09;5063550;28;20029;-71
2021/08/27 05:08:43;;;;;;;20.88;4.20;;;;;;;11.85;100.00;101706.75;5065129;28;20028;-67
2021/08/27 05:11:09;;;;;;;19.25;4.10;;;;;;;11.84;100.00;101709.38;5065095;28;20016;-69
2021/08/27 05:13:35;;;;;;;21.50;4.18;;;;;;;11.78;100.00;101712.84;5063029;28;20033;-69
2021/08/27 05:16:01;;;;;;;20.25;4.00;;;;;;;11.75;100.00;101710.16;5065638;28;20106;-66
2021/08/27 05:18:29;;;;;;;19.73;4.50;;;;;;;11.77;100.00;101719.00;5063102;28;20020;-66
2021/08/27 05:20:54;;;;;;;20.17;3.90;;;;;;;11.84;100.00;101718.22;5062821;28;20025;-65
2021/08/27 05:23:20;;;;;;;20.02;4.30;;;;;;;11.94;100.00;101716.59;5065705;28;20024;-66
2021/08/27 05:25:45;;;;;;;21.60;4.30;;;;;;;12.01;100.00;101715.81;5063743;28;20024;-66
2021/08/27 05:28:10;;;;;;;18.58;3.92;;;;;;;12.12;100.00;101715.94;5064381;28;20099;-66
2021/08/27 05:30:36;;;;;;;19.73;4.00;;;;;;;12.18;100.00;101723.06;5064601;28;20059;-66
2021/08/27 05:33:01;;;;;;;20.70;4.40;;;;;;;12.29;100.00;101732.03;5063210;28;20025;-66
2021/08/27 05:35:26;;;;;;;20.40;3.90;;;;;;;12.40;100.00;101732.16;5065798;28;20082;-66
2021/08/27 05:37:52;;;;;;;19.90;4.20;;;;;;;12.46;100.00;101732.19;5062613;28;20032;-66
2021/08/27 05:40:17;;;;;;;20.45;3.80;;;;;;;12.51;100.00;101733.16;5064987;28;20083;-66
2021/08/27 05:42:44;;;;;;;19.90;4.05;;;;;;;12.56;100.00;101738.50;5063837;28;20367;-65
2021/08/27 05:45:11;;;;;;;20.33;3.83;;;;;;;12.63;100.00;101735.03;5063909;28;20450;-66
2021/08/27 05:47:37;;;;;;;18.50;3.75;;;;;;;12.63;100.00;101736.81;5064606;28;20387;-66
2021/08/27 05:50:07;;;;;;;18.65;3.80;;;;;;;12.61;100.00;101741.19;5063288;28;20113;-64
2021/08/27 05:52:32;;;;;;;19.58;3.60;;;;;;;12.65;100.00;101738.59;5069968;28;20047;-64
2021/08/27 05:54:57;;;;;;;19.40;3.63;;;;;;;12.66;100.00;101732.41;5072156;28;20029;-64
2021/08/27 05:57:23;;;;;;;19.25;3.90;;;;;;;12.75;100.00;101728.09;5072456;28;20468;-64
2021/08/27 05:59:48;;;;;;;18.95;3.60;;;;;;;12.80;100.00;101735.22;5068936;28;20033;-65
2021/08/27 06:02:13;;;;;;;18.90;3.60;;;;;;;12.82;100.00;101729.91;5071965;28;20082;-65
2021/08/27 06:04:39;;;;;;;18.52;3.13;;;;;;;12.76;100.00;101736.06;5071687;28;20021;-64
2021/08/27 06:07:04;;;;;;;17.88;3.33;;;;;;;12.67;100.00;101735.97;5072123;28;20382;-64
2021/08/27 06:09:30;;;;;;;17.30;3.30;;;;;;;12.65;100.00;101740.34;5072122;28;20020;-64
2021/08/27 06:11:55;;;;;;;18.23;3.60;;;;;;;12.72;100.00;101742.19;5072209;28;20024;-64
2021/08/27 06:14:20;;;;;;;17.67;3.28;;;;;;;12.75;100.00;101728.09;5071083;28;20025;-65
2021/08/27 06:16:46;;;;;;;16.05;3.30;;;;;;;12.85;100.00;101738.78;5071790;28;20020;-63
2021/08/27 06:19:11;;;;;;;17.85;3.58;;;;;;;12.97;100.00;101737.13;5071752;28;20468;-64
2021/08/27 06:21:38;;;;;;;20.17;3.50;;;;;;;13.07;100.00;101741.63;5071938;28;20025;-65
2021/08/27 06:24:07;;;;;;;15.63;3.15;;;;;;;13.20;100.00;101738.19;5069223;28;20494;-65
2021/08/27 06:26:33;;;;;;;16.25;3.47;;;;;;;13.30;100.00;101739.16;5070787;28;20029;-66
2021/08/27 06:29:00;;;;;;;15.23;3.20;;;;;;;13.38;100.00;101741.88;5071632;28;20090;-65
2021/08/27 06:31:27;;;;;;;18.17;3.30;;;;;;;13.49;100.00;101736.66;5071288;28;20028;-65
2021/08/27 06:33:52;;;;;;;16.15;3.30;;;;;;;13.62;100.00;101734.97;5071203;28;20032;-63
2021/08/27 06:36:18;;;;;;;15.90;3.40;;;;;;;13.76;98.57;101738.56;5071858;28;20040;-63
2021/08/27 06:38:44;;;;;;;17.42;3.10;;;;;;;13.83;97.26;101740.38;5071091;28;20036;-64
2021/08/27 06:41:10;;;;;;;13.48;3.00;;;;;;;13.94;97.72;101741.34;5070780;28;20059;-64
2021/08/27 06:43:39;;;;;;;16.25;3.15;;;;;;;13.98;95.71;101746.66;5070968;28;20052;-63
2021/08/27 06:46:08;;;;;;;17.50;3.10;;;;;;;13.98;94.64;101749.31;5069816;28;20103;-63
2021/08/27 06:48:34;;;;;;;16.88;2.95;;;;;;;13.97;95.11;101743.13;5069900;28;20383;-64
2021/08/27 06:51:00;;;;;;;16.80;2.85;;;;;;;13.97;96.43;101748.44;5071270;28;20024;-64
2021/08/27 06:53:25;;;;;;;18.08;3.20;;;;;;;13.97;95.97;101742.25;5070447;28;20428;-64
2021/08/27 06:55:51;;;;;;;16.20;3.20;;;;;;;13.95;96.29;101744.91;5071224;28;20429;-65
2021/08/27 06:58:16;;;;;;;17.15;3.22;;;;;;;13.96;96.42;101741.34;5071532;28;20031;-65
2021/08/27 07:00:42;;;;;;;17.25;3.15;;;;;;;14.00;99.39;101740.47;5070976;28;20025;-65
2021/08/27 07:03:07;;;;;;;12.45;2.80;;;;;;;14.04;96.34;101746.72;5070974;28;20106;-65
2021/08/27 07:05:33;;;;;;;15.88;3.22;;;;;;;14.07;97.28;101750.25;5070564;28;20332;-65
2021/08/27 07:07:59;;;;;;;16.80;3.30;;;;;;;14.12;96.02;101753.84;5070784;28;20069;-65
2021/08/27 07:10:25;;;;;;;17.23;3.28;;;;;;;14.17;95.80;101750.28;5071443;28;20024;-66
2021/08/27 07:12:51;;;;;;;14.35;3.13;;;;;;;14.29;94.67;101745.91;5070948;28;20490;-66
2021/08/27 07:15:18;;;;;;;16.60;3.10;;;;;;;14.47;93.94;101744.19;5068873;28;20115;-66
2021/08/27 07:17:44;;;;;;;15.38;3.20;;;;;;;14.60;92.28;101745.09;5071002;28;20049;-66
2021/08/27 07:20:10;;;;;;;18.13;3.20;;;;;;;14.69;91.72;101754.91;5070092;28;20099;-66
2021/08/27 07:22:36;;;;;;;13.93;2.97;;;;;;;14.77;91.26;101748.72;5065090;28;20021;-72
2021/08/27 07:25:02;;;;;;;16.23;3.13;;;;;;;14.89;90.31;101737.19;5068864;28;20054;-69
2021/08/27 07:27:28;;;;;;;16.60;3.20;;;;;;;14.87;90.40;101744.28;5070765;28;20025;-68
2021/08/27 07:29:53;;;;;;;15.70;3.10;;;;;;;14.93;88.95;101748.75;5071034;28;20433;-70
2021/08/27 07:32:18;;;;;;;13.82;2.95;;;;;;;14.87;90.12;101752.28;5071275;28;20016;-73
2021/08/27 07:34:44;;;;;;;14.93;3.00;;;;;;;14.88;89.09;101750.50;5070363;28;20068;-68
2021/08/27 07:37:11;;;;;;;18.48;3.50;;;;;;;14.94;89.84;101756.72;5073226;28;20031;-68
2021/08/27 07:39:37;;;;;;;15.32;2.92;;;;;;;15.02;89.84;101755.84;5074919;28;20052;-71
2021/08/27 07:42:04;;;;;;;17.45;3.13;;;;;;;15.13;90.59;101754.03;5074839;28;20032;-69
2021/08/27 07:44:29;;;;;;;13.18;2.78;;;;;;;15.28;89.66;101750.50;5073428;28;20067;-70
2021/08/27 07:46:55;;;;;;;17.55;2.92;;;;;;;15.55;87.32;101752.22;5075008;28;20059;-70
2021/08/27 07:49:20;;;;;;;16.00;2.67;;;;;;;15.73;84.40;101753.06;5074890;28;20468;-70
2021/08/27 07:51:46;;;;;;;14.88;2.85;;;;;;;15.77;82.08;101757.50;5074439;28;20052;-69
2021/08/27 07:54:15;;;;;;;12.95;2.53;;;;;;;15.74;83.36;101752.19;5074242;28;20081;-71
2021/08/27 07:56:41;;;;;;;16.25;2.75;;;;;;;15.68;81.02;101756.66;5073796;28;20024;-71
2021/08/27 07:59:06;;;;;;;16.27;2.55;;;;;;;15.70;83.57;101754.00;5073907;28;20023;-70
2021/08/27 08:01:31;;;;;;;15.18;2.50;;;;;;;15.85;82.99;101761.09;5074546;28;20016;-66
2021/08/27 08:03:57;;;;;;;14.57;2.60;;;;;;;16.10;77.94;101750.34;5074106;28;20483;-67
2021/08/27 08:06:23;;;;;;;17.05;2.60;;;;;;;16.33;78.65;101760.91;5074974;28;20074;-67
2021/08/27 08:08:50;;;;;;;12.57;2.35;;;;;;;16.45;75.83;101762.59;5073284;28;20043;-67
2021/08/27 08:11:16;;;;;;;12.43;2.42;;;;;;;16.54;75.11;101767.88;5073812;28;20029;-67
2021/08/27 08:13:41;;;;;;;12.52;2.40;;;;;;;16.60;72.85;101767.88;5067383;28;20032;-66
2021/08/27 08:16:06;;;;;;;12.00;2.40;;;;;;;16.75;72.99;101761.53;5065160;28;20115;-66
2021/08/27 08:18:32;;;;;;;13.73;2.30;;;;;;;17.05;72.78;101755.13;5064534;28;20036;-66
2021/08/27 08:20:57;;;;;;;11.13;2.30;;;;;;;17.50;70.09;101761.84;5066365;28;20056;-67
2021/08/27 08:23:23;;;;;;;9.85;1.95;;;;;;;17.79;67.99;101753.50;5063335;28;20048;-67
2021/08/27 08:25:49;;;;;;;13.65;2.65;;;;;;;17.95;69.15;101756.91;5068332;28;20086;-64
2021/08/27 08:28:14;;;;;;;9.70;1.98;;;;;;;18.08;66.19;101763.00;5070894;28;20035;-64
2021/08/27 08:30:40;;;;;;;15.35;2.40;;;;;;;17.93;65.87;101767.63;5070191;28;20052;-64
2021/08/27 08:33:06;;;;;;;12.80;2.33;;;;;;;17.79;65.99;101772.22;5071976;28;20021;-65
2021/08/27 08:35:31;;;;;;;10.32;2.20;;;;;;;17.69;65.21;101771.47;5073832;28;20036;-65
2021/08/27 08:37:57;;;;;;;13.55;2.58;;;;;;;18.01;65.10;101778.22;5071373;28;20024;-65
2021/08/27 08:40:22;;;;;;;10.05;2.30;;;;;;;18.26;64.83;101772.59;5073839;28;20107;-66
2021/08/27 08:42:48;;;;;;;10.63;2.20;;;;;;;18.43;61.85;101765.22;5073824;28;20111;-66
2021/08/27 08:45:14;;;;;;;12.13;2.25;;;;;;;18.60;63.42;101766.78;5071017;28;20061;-67
2021/08/27 08:47:43;;;;;;;12.75;2.42;;;;;;;19.18;62.23;101770.38;5072669;28;20063;-66
2021/08/27 08:50:11;;;;;;;13.40;2.40;;;;;;;18.94;60.72;101769.84;5071925;28;20364;-66
2021/08/27 08:52:37;;;;;;;12.48;2.50;;;;;;;18.58;62.20;101781.97;5073586;28;20119;-67
2021/08/27 08:55:04;;;;;;;12.10;2.50;;;;;;;18.37;61.91;101775.13;5070743;28;20115;-65
2021/08/27 08:57:29;;;;;;;13.95;2.40;;;;;;;18.42;61.29;101774.16;5071931;28;20097;-66
2021/08/27 08:59:55;;;;;;;11.68;2.40;;;;;;;18.52;60.92;101771.34;5071890;28;20387;-65
2021/08/27 09:02:21;;;;;;;14.73;2.70;;;;;;;18.56;60.56;101773.09;5069893;28;20017;-66
2021/08/27 09:04:47;;;;;;;14.90;2.50;;;;;;;18.59;59.32;101775.72;5073080;28;20043;-65
2021/08/27 09:07:14;;;;;;;14.95;2.60;;;;;;;18.74;60.79;101774.59;5073382;28;20542;-64
2021/08/27 09:09:40;;;;;;;12.00;2.30;;;;;;;19.09;59.15;101775.88;5073634;28;20027;-66
2021/08/27 09:12:24;;;;;;;10.75;2.40;;;;;;;19.44;57.93;101769.91;5073622;28;20033;-65
2021/08/27 09:15:10;;;;;;;11.52;2.53;;;;;;;19.47;57.13;101772.53;5070732;28;20028;-66
2021/08/27 09:17:45;;;;;;;14.50;2.42;;;;;;;19.28;57.93;101776.44;5072747;28;20025;-65
2021/08/27 09:20:14;;;;;;;13.63;2.70;;;;;;;19.21;56.95;101780.13;5069845;28;20108;-66
2021/08/27 09:22:54;;;;;;;14.32;2.70;;;;;;;19.13;57.38;101770.47;5073358;28;20028;-66
2021/08/27 09:25:26;;;;;;;9.38;2.40;;;;;;;19.12;57.91;101771.34;5070736;28;20403;-65
2021/08/27 09:28:11;;;;;;;13.48;2.75;;;;;;;19.19;56.80;101780.16;5072405;28;20027;-65
2021/08/27 09:30:47;;;;;;;12.68;2.50;;;;;;;19.09;56.71;101771.41;5072324;28;20078;-64
2021/08/27 09:33:18;;;;;;;13.63;2.60;;;;;;;19.23;55.71;101778.34;5070315;28;20025;-65
2021/08/27 09:35:53;;;;;;;14.05;2.42;;;;;;;19.53;56.00;101776.91;5073038;28;20029;-65
2021/08/27 09:38:19;;;;;;;12.88;2.50;;;;;;;19.56;54.68;101781.34;5068897;28;20442;-65
2021/08/27 09:40:48;;;;;;;14.52;2.42;;;;;;;19.45;53.61;101777.03;5073167;28;20021;-65
2021/08/27 09:43:23;;;;;;;14.18;2.50;;;;;;;19.26;54.09;101780.97;5072744;28;20024;-64
2021/08/27 09:45:48;;;;;;;11.63;2.33;;;;;;;19.05;54.41;101784.88;5070037;28;20476;-64
2021/08/27 09:48:14;;;;;;;12.75;2.47;;;;;;;18.91;55.20;101779.75;5072161;28;20027;-64
2021/08/27 09:50:43;;;;;;;12.45;2.50;;;;;;;18.92;55.05;101777.03;5072083;28;20490;-65
2021/08/27 09:53:11;;;;;;;9.68;2.33;;;;;;;18.94;53.63;101779.69;5070953;28;20051;-65
2021/08/27 09:55:53;;;;;;;12.68;2.55;;;;;;;18.75;56.04;101804.03;5071117;28;20390;-64
2021/08/27 09:58:18;;;;;;;14.43;2.80;;;;;;;18.35;62.62;101819.75;5071897;28;20383;-65
2021/08/27 10:00:47;;;;;;;14.73;2.72;;;;;;;17.51;69.00;101814.41;5071864;28;20031;-64
2021/08/27 10:03:17;;;;;;;9.15;2.50;;;;;;;16.78;73.24;101817.56;5071560;28;20017;-64
2021/08/27 10:05:43;;;;;;;12.10;2.50;;;;;;;16.48;72.28;101799.94;5071771;28;20086;-68
2021/08/27 10:08:28;;;;;;;11.70;2.42;;;;;;;16.66;74.01;101801.63;5070996;28;20028;-68
2021/08/27 10:10:57;;;;;;;9.02;2.20;;;;;;;16.99;71.83;101791.66;5071540;28;20029;-67
2021/08/27 10:13:25;;;;;;;7.15;2.50;;;;;;;17.31;72.24;101780.69;5071673;28;20094;-68
2021/08/27 10:15:55;;;;;;;11.13;2.33;;;;;;;17.74;68.23;101782.97;5072100;28;20063;-66
2021/08/27 10:18:20;;;;;;;9.07;2.40;;;;;;;18.20;67.38;101780.69;5070667;28;20024;-66
2021/08/27 10:20:47;;;;;;;10.98;2.30;;;;;;;18.30;65.81;101774.31;5071740;28;20035;-66
2021/08/27 10:23:16;;;;;;;11.50;2.60;;;;;;;18.52;62.93;101757.97;5072082;28;20036;-67
2021/08/27 10:25:41;;;;;;;10.52;2.35;;;;;;;18.84;63.69;101759.28;5072177;28;20024;-67
2021/08/27 10:28:08;;;;;;;10.52;2.45;;;;;;;19.10;62.06;101761.56;5071368;28;20020;-68
2021/08/27 10:30:48;;;;;;;12.27;2.38;;;;;;;20.09;61.71;101760.63;5070243;28;20031;-68
2021/08/27 10:33:42;;;;;;;9.95;2.25;;;;;;;20.80;56.22;101753.72;5069760;28;20103;-67
2021/08/27 10:36:08;;;;;;;9.73;2.40;;;;;;;21.75;52.65;101765.63;5059993;28;20479;-71
2021/08/27 10:38:47;;;;;;;9.73;2.20;;;;;;;23.19;49.59;101748.69;5062813;28;20068;-69
2021/08/27 10:41:19;;;;;;;12.23;2.30;;;;;;;24.32;46.60;101758.13;5069682;28;20036;-70
2021/08/27 10:44:24;;;;;;;11.25;2.20;;;;;;;25.11;43.52;101749.56;5062041;28;20059;-73
2021/08/27 10:46:50;;;;;;;7.85;2.17;;;;;;;26.75;40.02;101735.78;5059915;28;20048;-71
2021/08/27 10:49:18;;;;;;;9.20;2.22;;;;;;;27.30;37.78;101736.59;5061907;28;20036;-69
2021/08/27 10:51:45;;;;;;;8.32;2.00;;;;;;;28.24;37.75;101738.88;5059734;28;20127;-68
2021/08/27 10:54:13;;;;;;;8.55;2.05;;;;;;;28.43;33.53;101741.44;5061095;28;20091;-69
2021/08/27 10:56:51;;;;;;;12.52;2.40;;;;;;;28.06;35.46;101738.06;5059421;28;20143;-68
2021/08/27 10:59:19;;;;;;;13.15;2.50;;;;;;;26.72;35.72;101725.09;5061793;28;20486;-71
2021/08/27 11:01:46;;;;;;;13.15;2.70;;;;;;;24.94;39.66;101729.50;5063972;28;20111;-68
2021/08/27 11:04:39;;;;;;;12.57;2.45;;;;;;;23.81;42.30;101741.13;5062934;28;20041;-68
2021/08/27 11:07:19;;;;;;;11.98;2.50;;;;;;;22.77;45.28;101731.16;5063181;28;20040;-68
2021/08/27 11:10:09;;;;;;;12.90;2.60;;;;;;;22.42;46.25;101735.00;5048166;28;20040;-63
2021/08/27 11:12:34;;;;;;;11.45;2.50;;;;;;;22.52;45.04;101733.78;5063165;28;20463;-64
2021/08/27 11:15:27;;;;;;;12.82;2.90;;;;;;;23.47;44.76;101726.13;5048532;28;20031;-66
2021/08/27 11:18:17;;;;;;;10.98;2.60;;;;;;;25.85;40.94;101730.09;5064080;28;20033;-64
2021/08/27 11:20:43;;;;;;;15.50;2.60;;;;;;;25.78;38.00;101720.50;5061016;28;20115;-64